Moffat, Colorado
Current Conditions -  °F | °C
As of 9:12 AM on Tuesday 21 Oct 2014 (Local Time) from K04V Reporting Station
Clear Clear  
Wind Chill: 40°   Ceiling: Unl
Heat Index: 45°   Visibility: 10mi
Dew Point: 34°   Wind: 9mph
Humidity: 66%   Direction: 310°NW
Pressure: 30.28"   Gusts: NA
Location:  38°N, 105.91°W
Report Text: K04V 211512Z AUTO 31008KT 10SM CLR 07/01 A3028 RMK AO2
Loading
Personal Weather Stations






























Interactive Weather Map
Tropical Storm Tracking
New forecast layout! Learn more

10-Day Weather Forecast

Advertisements
Track Severe Weather on mobile